sensor_id;sensor_type;location;lat;lon;timestamp;pressure;altitude;pressure_sealevel;temperature;humidity
33404;BME280;19751;40.274;18.268;2023-04-20T00:00:15;100988.38;;;13.22;100.00
33404;BME280;19751;40.274;18.268;2023-04-20T00:02:42;100991.09;;;13.22;100.00
33404;BME280;19751;40.274;18.268;2023-04-20T00:05:08;100981.31;;;13.21;100.00
33404;BME280;19751;40.274;18.268;2023-04-20T00:07:34;100976.13;;;13.19;100.00
33404;BME280;19751;40.274;18.268;2023-04-20T00:10:01;100970.97;;;13.24;100.00
33404;BME280;19751;40.274;18.268;2023-04-20T00:12:28;100969.31;;;13.30;100.00
33404;BME280;19751;40.274;18.268;2023-04-20T00:14:54;100962.25;;;13.29;100.00
33404;BME280;19751;40.274;18.268;2023-04-20T00:17:20;100958.88;;;13.27;100.00
33404;BME280;19751;40.274;18.268;2023-04-20T00:19:46;100952.22;;;13.23;100.00
33404;BME280;19751;40.274;18.268;2023-04-20T00:22:12;100956.13;;;13.20;100.00
33404;BME280;19751;40.274;18.268;2023-04-20T00:24:37;100951.13;;;13.17;100.00
33404;BME280;19751;40.274;18.268;2023-04-20T00:27:03;100958.81;;;13.13;100.00
33404;BME280;19751;40.274;18.268;2023-04-20T00:29:28;100955.47;;;13.11;100.00
33404;BME280;19751;40.274;18.268;2023-04-20T00:31:54;100951.94;;;13.11;100.00
33404;BME280;19751;40.274;18.268;2023-04-20T00:34:19;100951.50;;;13.07;100.00
33404;BME280;19751;40.274;18.268;2023-04-20T00:36:45;100941.09;;;13.04;100.00
33404;BME280;19751;40.274;18.268;2023-04-20T00:39:10;100947.09;;;13.00;100.00
33404;BME280;19751;40.274;18.268;2023-04-20T00:41:36;100947.88;;;12.93;100.00
33404;BME280;19751;40.274;18.268;2023-04-20T00:44:02;100945.78;;;12.89;100.00
33404;BME280;19751;40.274;18.268;2023-04-20T00:46:27;100943.88;;;12.83;100.00
33404;BME280;19751;40.274;18.268;2023-04-20T00:48:53;100939.91;;;12.79;100.00
33404;BME280;19751;40.274;18.268;2023-04-20T00:51:21;100944.88;;;12.75;100.00
33404;BME280;19751;40.274;18.268;2023-04-20T00:53:46;100943.22;;;12.74;100.00
33404;BME280;19751;40.274;18.268;2023-04-20T00:56:13;100931.56;;;12.74;100.00
33404;BME280;19751;40.274;18.268;2023-04-20T00:58:41;100931.38;;;12.75;100.00
33404;BME280;19751;40.274;18.268;2023-04-20T01:01:06;100929.03;;;12.72;100.00
33404;BME280;19751;40.274;18.268;2023-04-20T01:03:33;100924.91;;;12.69;100.00
33404;BME280;19751;40.274;18.268;2023-04-20T01:05:59;100927.16;;;12.66;100.00
33404;BME280;19751;40.274;18.268;2023-04-20T01:08:26;100919.81;;;12.60;100.00
33404;BME280;19751;40.274;18.268;2023-04-20T01:10:55;100921.66;;;12.53;100.00
33404;BME280;19751;40.274;18.268;2023-04-20T01:13:20;100920.13;;;12.43;100.00
33404;BME280;19751;40.274;18.268;2023-04-20T01:15:46;100926.53;;;12.36;100.00
33404;BME280;19751;40.274;18.268;2023-04-20T01:18:12;100918.38;;;12.29;100.00
33404;BME280;19751;40.274;18.268;2023-04-20T01:20:38;100918.97;;;12.25;100.00
33404;BME280;19751;40.274;18.268;2023-04-20T01:23:03;100917.47;;;12.22;100.00
33404;BME280;19751;40.274;18.268;2023-04-20T01:25:29;100910.41;;;12.21;100.00
33404;BME280;19751;40.274;18.268;2023-04-20T01:27:54;100913.50;;;12.18;100.00
33404;BME280;19751;40.274;18.268;2023-04-20T01:30:20;100907.28;;;12.17;100.00
33404;BME280;19751;40.274;18.268;2023-04-20T01:32:45;100910.81;;;12.18;100.00
33404;BME280;19751;40.274;18.268;2023-04-20T01:35:11;100908.94;;;12.18;100.00
33404;BME280;19751;40.274;18.268;2023-04-20T01:37:38;100913.25;;;12.13;100.00
33404;BME280;19751;40.274;18.268;2023-04-20T01:40:04;100916.75;;;12.07;100.00
33404;BME280;19751;40.274;18.268;2023-04-20T01:42:30;100907.63;;;12.08;100.00
33404;BME280;19751;40.274;18.268;2023-04-20T01:44:56;100903.34;;;12.20;100.00
33404;BME280;19751;40.274;18.268;2023-04-20T01:47:21;100906.78;;;12.35;100.00
33404;BME280;19751;40.274;18.268;2023-04-20T01:49:47;100898.13;;;12.47;100.00
33404;BME280;19751;40.274;18.268;2023-04-20T01:52:12;100903.38;;;12.55;100.00
33404;BME280;19751;40.274;18.268;2023-04-20T01:54:38;100906.31;;;12.60;100.00
33404;BME280;19751;40.274;18.268;2023-04-20T01:57:03;100903.63;;;12.60;100.00
33404;BME280;19751;40.274;18.268;2023-04-20T01:59:29;100894.88;;;12.58;100.00
33404;BME280;19751;40.274;18.268;2023-04-20T02:01:54;100901.34;;;12.57;100.00
33404;BME280;19751;40.274;18.268;2023-04-20T02:04:20;100896.94;;;12.56;100.00
33404;BME280;19751;40.274;18.268;2023-04-20T02:06:45;100890.25;;;12.52;100.00
33404;BME280;19751;40.274;18.268;2023-04-20T02:09:11;100889.44;;;12.51;100.00
33404;BME280;19751;40.274;18.268;2023-04-20T02:11:36;100894.22;;;12.49;100.00
33404;BME280;19751;40.274;18.268;2023-04-20T02:14:02;100890.03;;;12.47;100.00
33404;BME280;19751;40.274;18.268;2023-04-20T02:16:28;100887.31;;;12.47;100.00
33404;BME280;19751;40.274;18.268;2023-04-20T02:18:55;100877.75;;;12.44;100.00
33404;BME280;19751;40.274;18.268;2023-04-20T02:21:20;100874.19;;;12.43;100.00
33404;BME280;19751;40.274;18.268;2023-04-20T02:23:46;100883.13;;;12.37;100.00
33404;BME280;19751;40.274;18.268;2023-04-20T02:26:11;100881.19;;;12.31;100.00
33404;BME280;19751;40.274;18.268;2023-04-20T02:28:37;100874.09;;;12.24;100.00
33404;BME280;19751;40.274;18.268;2023-04-20T02:31:02;100876.34;;;12.20;100.00
33404;BME280;19751;40.274;18.268;2023-04-20T02:33:28;100867.41;;;12.19;100.00
33404;BME280;19751;40.274;18.268;2023-04-20T02:35:53;100873.81;;;12.18;100.00
33404;BME280;19751;40.274;18.268;2023-04-20T02:38:19;100869.47;;;12.17;100.00
33404;BME280;19751;40.274;18.268;2023-04-20T02:40:45;100872.38;;;12.16;100.00
33404;BME280;19751;40.274;18.268;2023-04-20T02:43:10;100866.31;;;12.14;100.00
33404;BME280;19751;40.274;18.268;2023-04-20T02:45:36;100867.94;;;12.08;100.00
33404;BME280;19751;40.274;18.268;2023-04-20T02:48:01;100860.44;;;12.04;100.00
33404;BME280;19751;40.274;18.268;2023-04-20T02:50:27;100856.09;;;12.03;100.00
33404;BME280;19751;40.274;18.268;2023-04-20T02:52:52;100857.75;;;12.04;100.00
33404;BME280;19751;40.274;18.268;2023-04-20T02:55:18;100855.44;;;12.01;100.00
33404;BME280;19751;40.274;18.268;2023-04-20T02:57:43;100851.25;;;11.98;100.00
33404;BME280;19751;40.274;18.268;2023-04-20T03:00:09;100857.06;;;11.95;100.00
33404;BME280;19751;40.274;18.268;2023-04-20T03:02:37;100862.84;;;11.92;100.00
33404;BME280;19751;40.274;18.268;2023-04-20T03:05:03;100860.91;;;11.86;100.00
33404;BME280;19751;40.274;18.268;2023-04-20T03:07:29;100866.22;;;11.79;100.00
33404;BME280;19751;40.274;18.268;2023-04-20T03:09:55;100863.06;;;11.76;100.00
33404;BME280;19751;40.274;18.268;2023-04-20T03:12:21;100860.97;;;11.71;100.00
33404;BME280;19751;40.274;18.268;2023-04-20T03:14:47;100863.00;;;11.69;100.00
33404;BME280;19751;40.274;18.268;2023-04-20T03:17:12;100864.03;;;11.68;100.00
33404;BME280;19751;40.274;18.268;2023-04-20T03:19:38;100858.03;;;11.66;100.00
33404;BME280;19751;40.274;18.268;2023-04-20T03:22:03;100865.47;;;11.64;100.00
33404;BME280;19751;40.274;18.268;2023-04-20T03:24:29;100868.34;;;11.62;100.00
33404;BME280;19751;40.274;18.268;2023-04-20T03:26:54;100870.81;;;11.57;100.00
33404;BME280;19751;40.274;18.268;2023-04-20T03:29:20;100874.47;;;11.50;100.00
33404;BME280;19751;40.274;18.268;2023-04-20T03:31:46;100868.16;;;11.42;100.00
33404;BME280;19751;40.274;18.268;2023-04-20T03:34:11;100877.66;;;11.38;100.00
33404;BME280;19751;40.274;18.268;2023-04-20T03:36:37;100881.38;;;11.37;100.00
33404;BME280;19751;40.274;18.268;2023-04-20T03:39:03;100883.06;;;11.38;100.00
33404;BME280;19751;40.274;18.268;2023-04-20T03:41:30;100884.25;;;11.36;100.00
33404;BME280;19751;40.274;18.268;2023-04-20T03:43:55;100880.28;;;11.32;100.00
33404;BME280;19751;40.274;18.268;2023-04-20T03:46:21;100873.03;;;11.32;100.00
33404;BME280;19751;40.274;18.268;2023-04-20T03:48:46;100873.47;;;11.36;100.00
33404;BME280;19751;40.274;18.268;2023-04-20T03:51:12;100881.44;;;11.44;100.00
33404;BME280;19751;40.274;18.268;2023-04-20T03:53:37;100878.94;;;11.42;100.00
33404;BME280;19751;40.274;18.268;2023-04-20T03:56:03;100878.94;;;11.42;100.00
33404;BME280;19751;40.274;18.268;2023-04-20T03:58:28;100877.91;;;11.43;100.00
33404;BME280;19751;40.274;18.268;2023-04-20T04:01:12;100873.75;;;11.41;100.00
33404;BME280;19751;40.274;18.268;2023-04-20T04:03:37;100881.28;;;11.45;100.00
33404;BME280;19751;40.274;18.268;2023-04-20T04:06:03;100883.38;;;11.50;100.00
33404;BME280;19751;40.274;18.268;2023-04-20T04:08:29;100878.00;;;11.50;100.00
33404;BME280;19751;40.274;18.268;2023-04-20T04:10:55;100876.75;;;11.53;100.00
33404;BME280;19751;40.274;18.268;2023-04-20T04:13:21;100877.88;;;11.58;100.00
33404;BME280;19751;40.274;18.268;2023-04-20T04:15:46;100874.97;;;11.60;100.00
33404;BME280;19751;40.274;18.268;2023-04-20T04:18:12;100870.81;;;11.57;100.00
33404;BME280;19751;40.274;18.268;2023-04-20T04:20:37;100869.13;;;11.56;100.00
33404;BME280;19751;40.274;18.268;2023-04-20T04:23:03;100877.22;;;11.56;100.00
33404;BME280;19751;40.274;18.268;2023-04-20T04:25:28;100889.88;;;11.56;100.00
33404;BME280;19751;40.274;18.268;2023-04-20T04:27:54;100877.22;;;11.56;100.00
33404;BME280;19751;40.274;18.268;2023-04-20T04:30:19;100884.31;;;11.57;100.00
33404;BME280;19751;40.274;18.268;2023-04-20T04:32:45;100885.59;;;11.61;100.00
33404;BME280;19751;40.274;18.268;2023-04-20T04:35:11;100887.03;;;11.64;100.00
33404;BME280;19751;40.274;18.268;2023-04-20T04:37:37;100885.00;;;11.66;100.00
33404;BME280;19751;40.274;18.268;2023-04-20T04:40:03;100887.50;;;11.67;100.00
33404;BME280;19751;40.274;18.268;2023-04-20T04:42:32;100891.94;;;11.75;100.00
33404;BME280;19751;40.274;18.268;2023-04-20T04:44:59;100891.97;;;11.82;100.00
33404;BME280;19751;40.274;18.268;2023-04-20T04:47:27;100891.44;;;11.86;100.00
33404;BME280;19751;40.274;18.268;2023-04-20T04:49:55;100890.22;;;11.89;100.00
33404;BME280;19751;40.274;18.268;2023-04-20T04:52:21;100891.69;;;11.91;100.00
33404;BME280;19751;40.274;18.268;2023-04-20T04:54:47;100889.44;;;11.95;100.00
33404;BME280;19751;40.274;18.268;2023-04-20T04:57:13;100896.56;;;12.03;100.00
33404;BME280;19751;40.274;18.268;2023-04-20T04:59:39;100898.28;;;12.10;100.00
33404;BME280;19751;40.274;18.268;2023-04-20T05:02:04;100898.53;;;12.15;100.00
33404;BME280;19751;40.274;18.268;2023-04-20T05:04:30;100900.44;;;12.22;100.00
33404;BME280;19751;40.274;18.268;2023-04-20T05:06:55;100902.56;;;12.26;100.00
33404;BME280;19751;40.274;18.268;2023-04-20T05:09:21;100899.25;;;12.31;100.00
33404;BME280;19751;40.274;18.268;2023-04-20T05:11:46;100903.25;;;12.35;100.00
33404;BME280;19751;40.274;18.268;2023-04-20T05:14:12;100906.38;;;12.38;100.00
33404;BME280;19751;40.274;18.268;2023-04-20T05:16:37;100901.44;;;12.42;100.00
33404;BME280;19751;40.274;18.268;2023-04-20T05:19:03;100900.63;;;12.48;100.00
33404;BME280;19751;40.274;18.268;2023-04-20T05:21:28;100895.47;;;12.53;100.00
33404;BME280;19751;40.274;18.268;2023-04-20T05:23:55;100902.59;;;12.61;100.00
33404;BME280;19751;40.274;18.268;2023-04-20T05:26:20;100900.97;;;12.66;100.00
33404;BME280;19751;40.274;18.268;2023-04-20T05:28:46;100901.00;;;12.73;100.00
33404;BME280;19751;40.274;18.268;2023-04-20T05:31:11;100897.09;;;12.82;100.00
33404;BME280;19751;40.274;18.268;2023-04-20T05:33:36;100896.28;;;12.88;100.00
33404;BME280;19751;40.274;18.268;2023-04-20T05:36:02;100901.53;;;12.97;100.00
33404;BME280;19751;40.274;18.268;2023-04-20T05:38:28;100903.00;;;13.06;100.00
33404;BME280;19751;40.274;18.268;2023-04-20T05:40:53;100902.22;;;13.12;100.00
33404;BME280;19751;40.274;18.268;2023-04-20T05:43:19;100903.09;;;13.19;100.00
33404;BME280;19751;40.274;18.268;2023-04-20T05:45:47;100902.28;;;13.25;100.00
33404;BME280;19751;40.274;18.268;2023-04-20T05:48:13;100911.72;;;13.36;100.00
33404;BME280;19751;40.274;18.268;2023-04-20T05:50:38;100907.34;;;13.41;100.00
33404;BME280;19751;40.274;18.268;2023-04-20T05:53:04;100911.53;;;13.51;100.00
33404;BME280;19751;40.274;18.268;2023-04-20T05:55:30;100911.16;;;13.60;100.00
33404;BME280;19751;40.274;18.268;2023-04-20T05:57:55;100912.81;;;13.68;100.00
33404;BME280;19751;40.274;18.268;2023-04-20T06:00:21;100913.03;;;13.73;100.00
33404;BME280;19751;40.274;18.268;2023-04-20T06:02:46;100904.47;;;13.76;100.00
33404;BME280;19751;40.274;18.268;2023-04-20T06:05:12;100913.84;;;13.80;100.00
33404;BME280;19751;40.274;18.268;2023-04-20T06:07:38;100912.19;;;13.79;100.00
33404;BME280;19751;40.274;18.268;2023-04-20T06:10:04;100907.00;;;13.84;100.00
33404;BME280;19751;40.274;18.268;2023-04-20T06:12:30;100915.75;;;13.93;100.00
33404;BME280;19751;40.274;18.268;2023-04-20T06:14:56;100920.56;;;13.98;100.00
33404;BME280;19751;40.274;18.268;2023-04-20T06:17:22;100919.13;;;14.02;100.00
33404;BME280;19751;40.274;18.268;2023-04-20T06:19:47;100917.63;;;14.06;100.00
33404;BME280;19751;40.274;18.268;2023-04-20T06:22:13;100922.22;;;14.12;100.00
33404;BME280;19751;40.274;18.268;2023-04-20T06:24:40;100919.53;;;14.18;100.00
33404;BME280;19751;40.274;18.268;2023-04-20T06:27:07;100920.16;;;14.27;100.00
33404;BME280;19751;40.274;18.268;2023-04-20T06:29:33;100922.84;;;14.34;100.00
33404;BME280;19751;40.274;18.268;2023-04-20T06:31:58;100920.75;;;14.42;100.00
33404;BME280;19751;40.274;18.268;2023-04-20T06:34:24;100918.91;;;14.50;100.00
33404;BME280;19751;40.274;18.268;2023-04-20T06:36:50;100917.44;;;14.54;100.00
33404;BME280;19751;40.274;18.268;2023-04-20T06:39:15;100930.97;;;14.60;100.00
33404;BME280;19751;40.274;18.268;2023-04-20T06:41:42;100926.16;;;14.62;100.00
33404;BME280;19751;40.274;18.268;2023-04-20T06:44:07;100933.66;;;14.67;100.00
33404;BME280;19751;40.274;18.268;2023-04-20T06:46:33;100933.25;;;14.70;100.00
33404;BME280;19751;40.274;18.268;2023-04-20T06:48:58;100936.97;;;14.76;100.00
33404;BME280;19751;40.274;18.268;2023-04-20T06:51:24;100937.19;;;14.81;100.00
33404;BME280;19751;40.274;18.268;2023-04-20T06:53:51;100945.13;;;14.82;100.00
33404;BME280;19751;40.274;18.268;2023-04-20T06:56:16;100942.41;;;14.82;100.00
33404;BME280;19751;40.274;18.268;2023-04-20T06:58:42;100945.72;;;14.84;100.00
33404;BME280;19751;40.274;18.268;2023-04-20T07:01:07;100946.75;;;14.90;100.00
33404;BME280;19751;40.274;18.268;2023-04-20T07:03:33;100948.00;;;14.94;100.00
33404;BME280;19751;40.274;18.268;2023-04-20T07:05:58;100946.53;;;14.98;100.00
33404;BME280;19751;40.274;18.268;2023-04-20T07:08:24;100948.38;;;15.04;100.00
33404;BME280;19751;40.274;18.268;2023-04-20T07:10:50;100941.91;;;15.05;100.00
33404;BME280;19751;40.274;18.268;2023-04-20T07:13:15;100945.25;;;15.07;100.00
33404;BME280;19751;40.274;18.268;2023-04-20T07:15:41;100953.16;;;15.09;100.00
33404;BME280;19751;40.274;18.268;2023-04-20T07:18:09;100947.31;;;15.12;100.00
33404;BME280;19751;40.274;18.268;2023-04-20T07:20:35;100954.59;;;15.18;100.00
33404;BME280;19751;40.274;18.268;2023-04-20T07:23:01;100958.16;;;15.19;100.00
33404;BME280;19751;40.274;18.268;2023-04-20T07:25:27;100960.81;;;15.25;100.00
33404;BME280;19751;40.274;18.268;2023-04-20T07:27:55;100957.69;;;15.28;100.00
33404;BME280;19751;40.274;18.268;2023-04-20T07:30:21;100956.84;;;15.34;100.00
33404;BME280;19751;40.274;18.268;2023-04-20T07:32:47;100957.63;;;15.41;100.00
33404;BME280;19751;40.274;18.268;2023-04-20T07:35:13;100955.09;;;15.47;100.00
33404;BME280;19751;40.274;18.268;2023-04-20T07:37:39;100959.66;;;15.53;100.00
33404;BME280;19751;40.274;18.268;2023-04-20T07:40:05;100960.66;;;15.58;100.00
33404;BME280;19751;40.274;18.268;2023-04-20T07:42:31;100964.22;;;15.59;100.00
33404;BME280;19751;40.274;18.268;2023-04-20T07:44:58;100968.38;;;15.61;100.00
33404;BME280;19751;40.274;18.268;2023-04-20T07:47:24;100955.41;;;15.70;100.00
33404;BME280;19751;40.274;18.268;2023-04-20T07:49:49;100961.25;;;15.74;100.00
33404;BME280;19751;40.274;18.268;2023-04-20T07:52:15;100954.34;;;15.78;100.00
33404;BME280;19751;40.274;18.268;2023-04-20T07:54:40;100949.91;;;15.83;100.00
33404;BME280;19751;40.274;18.268;2023-04-20T07:57:06;100950.69;;;15.90;100.00
33404;BME280;19751;40.274;18.268;2023-04-20T07:59:33;100956.97;;;15.91;100.00
33404;BME280;19751;40.274;18.268;2023-04-20T08:02:00;100955.28;;;15.97;100.00
33404;BME280;19751;40.274;18.268;2023-04-20T08:04:28;100953.94;;;16.06;100.00
33404;BME280;19751;40.274;18.268;2023-04-20T08:06:54;100956.38;;;16.14;100.00
33404;BME280;19751;40.274;18.268;2023-04-20T08:09:19;100947.13;;;16.22;100.00
33404;BME280;19751;40.274;18.268;2023-04-20T08:11:45;100947.28;;;16.27;100.00
33404;BME280;19751;40.274;18.268;2023-04-20T08:14:14;100941.78;;;16.33;100.00
33404;BME280;19751;40.274;18.268;2023-04-20T08:16:39;100948.03;;;16.34;100.00
33404;BME280;19751;40.274;18.268;2023-04-20T08:19:05;100941.34;;;16.36;100.00
33404;BME280;19751;40.274;18.268;2023-04-20T08:21:40;100949.06;;;16.39;100.00
33404;BME280;19751;40.274;18.268;2023-04-20T08:24:07;100945.00;;;16.49;100.00
33404;BME280;19751;40.274;18.268;2023-04-20T08:26:33;100945.06;;;16.42;100.00
33404;BME280;19751;40.274;18.268;2023-04-20T08:28:59;100943.00;;;16.37;100.00
33404;BME280;19751;40.274;18.268;2023-04-20T08:31:25;100942.69;;;16.52;100.00
33404;BME280;19751;40.274;18.268;2023-04-20T08:33:50;100950.16;;;16.57;100.00
33404;BME280;19751;40.274;18.268;2023-04-20T08:36:16;100947.00;;;16.60;100.00
33404;BME280;19751;40.274;18.268;2023-04-20T08:38:42;100949.19;;;16.70;100.00
33404;BME280;19751;40.274;18.268;2023-04-20T08:41:08;100942.47;;;16.72;100.00
33404;BME280;19751;40.274;18.268;2023-04-20T08:43:37;100942.47;;;16.72;100.00
33404;BME280;19751;40.274;18.268;2023-04-20T08:46:03;100937.91;;;16.73;100.00
33404;BME280;19751;40.274;18.268;2023-04-20T08:48:34;100942.66;;;16.77;100.00
33404;BME280;19751;40.274;18.268;2023-04-20T08:51:04;100950.81;;;16.77;100.00
33404;BME280;19751;40.274;18.268;2023-04-20T08:53:30;100946.59;;;16.81;100.00
33404;BME280;19751;40.274;18.268;2023-04-20T08:55:56;100949.69;;;16.85;100.00
33404;BME280;19751;40.274;18.268;2023-04-20T08:58:24;100945.69;;;16.87;100.00
33404;BME280;19751;40.274;18.268;2023-04-20T09:00:49;100942.81;;;16.82;99.45
33404;BME280;19751;40.274;18.268;2023-04-20T09:03:15;100945.78;;;16.81;99.99
33404;BME280;19751;40.274;18.268;2023-04-20T09:05:43;100950.09;;;16.88;99.78
33404;BME280;19751;40.274;18.268;2023-04-20T09:08:09;100947.06;;;16.97;99.79
33404;BME280;19751;40.274;18.268;2023-04-20T09:10:42;100951.72;;;17.08;98.04
33404;BME280;19751;40.274;18.268;2023-04-20T09:13:30;100947.03;;;17.15;96.48
33404;BME280;19751;40.274;18.268;2023-04-20T09:15:54;100944.63;;;17.25;95.42
33404;BME280;19751;40.274;18.268;2023-04-20T09:18:20;100941.81;;;17.32;94.97
33404;BME280;19751;40.274;18.268;2023-04-20T09:20:46;100939.84;;;17.39;94.62
33404;BME280;19751;40.274;18.268;2023-04-20T09:23:16;100943.22;;;17.53;93.45
33404;BME280;19751;40.274;18.268;2023-04-20T09:25:43;100940.50;;;17.53;93.09
33404;BME280;19751;40.274;18.268;2023-04-20T09:28:11;100935.16;;;17.58;92.26
33404;BME280;19751;40.274;18.268;2023-04-20T09:30:47;100936.75;;;17.65;90.53
33404;BME280;19751;40.274;18.268;2023-04-20T09:33:14;100938.19;;;17.68;87.74
33404;BME280;19751;40.274;18.268;2023-04-20T09:35:41;100934.41;;;17.69;86.29
33404;BME280;19751;40.274;18.268;2023-04-20T09:38:08;100931.22;;;17.72;85.21
33404;BME280;19751;40.274;18.268;2023-04-20T09:40:34;100938.63;;;17.83;83.07
33404;BME280;19751;40.274;18.268;2023-04-20T09:43:09;100941.59;;;17.94;82.62
33404;BME280;19751;40.274;18.268;2023-04-20T09:45:38;100930.84;;;17.99;82.28
33404;BME280;19751;40.274;18.268;2023-04-20T09:48:05;100937.59;;;18.08;83.37
33404;BME280;19751;40.274;18.268;2023-04-20T09:50:34;100932.06;;;18.14;79.38
33404;BME280;19751;40.274;18.268;2023-04-20T09:53:01;100934.41;;;18.11;73.52
33404;BME280;19751;40.274;18.268;2023-04-20T09:55:30;100934.28;;;18.06;71.44
33404;BME280;19751;40.274;18.268;2023-04-20T09:57:55;100931.31;;;17.96;71.09
33404;BME280;19751;40.274;18.268;2023-04-20T10:00:21;100923.81;;;17.91;72.11
33404;BME280;19751;40.274;18.268;2023-04-20T10:02:47;100924.06;;;17.89;73.84
33404;BME280;19751;40.274;18.268;2023-04-20T10:05:13;100919.69;;;17.88;75.02
33404;BME280;19751;40.274;18.268;2023-04-20T10:07:40;100916.13;;;17.88;81.14
33404;BME280;19751;40.274;18.268;2023-04-20T10:10:08;100917.94;;;18.06;86.51
33404;BME280;19751;40.274;18.268;2023-04-20T10:12:54;100912.59;;;18.11;86.41
33404;BME280;19751;40.274;18.268;2023-04-20T10:15:20;100908.09;;;18.05;85.92
33404;BME280;19751;40.274;18.268;2023-04-20T10:17:46;100903.84;;;18.09;84.37
33404;BME280;19751;40.274;18.268;2023-04-20T10:20:26;100904.09;;;18.19;82.38
33404;BME280;19751;40.274;18.268;2023-04-20T10:22:54;100897.34;;;18.22;81.85
33404;BME280;19751;40.274;18.268;2023-04-20T10:25:30;100896.25;;;18.23;82.37
33404;BME280;19751;40.274;18.268;2023-04-20T10:28:02;100894.81;;;18.20;81.77
33404;BME280;19751;40.274;18.268;2023-04-20T10:30:35;100896.97;;;18.18;79.29
33404;BME280;19751;40.274;18.268;2023-04-20T10:35:41;100897.81;;;18.54;78.80
33404;BME280;19751;40.274;18.268;2023-04-20T10:38:07;100887.13;;;18.64;70.18
33404;BME280;19751;40.274;18.268;2023-04-20T10:40:35;100885.81;;;18.67;70.70
33404;BME280;19751;40.274;18.268;2023-04-20T10:43:01;100877.06;;;18.76;68.33
33404;BME280;19751;40.274;18.268;2023-04-20T10:45:34;100879.50;;;18.90;75.58
33404;BME280;19751;40.274;18.268;2023-04-20T10:48:07;100864.91;;;18.96;80.93
33404;BME280;19751;40.274;18.268;2023-04-20T10:50:33;100875.84;;;18.96;86.80
33404;BME280;19751;40.274;18.268;2023-04-20T10:52:59;100864.41;;;18.99;90.67
33404;BME280;19751;40.274;18.268;2023-04-20T10:55:25;100851.44;;;19.06;93.27
33404;BME280;19751;40.274;18.268;2023-04-20T10:57:50;100859.66;;;19.06;94.78
33404;BME280;19751;40.274;18.268;2023-04-20T11:00:21;100852.28;;;19.06;95.97
33404;BME280;19751;40.274;18.268;2023-04-20T11:02:54;100847.06;;;19.05;97.73
33404;BME280;19751;40.274;18.268;2023-04-20T11:05:25;100851.34;;;19.01;98.89
33404;BME280;19751;40.274;18.268;2023-04-20T11:07:58;100854.47;;;18.93;99.64
33404;BME280;19751;40.274;18.268;2023-04-20T11:10:37;100848.22;;;18.80;99.87
33404;BME280;19751;40.274;18.268;2023-04-20T11:13:03;100851.56;;;18.71;100.00
33404;BME280;19751;40.274;18.268;2023-04-20T11:15:32;100864.22;;;18.65;100.00
33404;BME280;19751;40.274;18.268;2023-04-20T11:18:11;100852.84;;;18.56;100.00
33404;BME280;19751;40.274;18.268;2023-04-20T11:20:37;100854.66;;;18.51;100.00
33404;BME280;19751;40.274;18.268;2023-04-20T11:23:13;100853.69;;;18.45;100.00
33404;BME280;19751;40.274;18.268;2023-04-20T11:25:51;100850.84;;;18.40;100.00
33404;BME280;19751;40.274;18.268;2023-04-20T11:28:17;100841.13;;;18.32;100.00
33404;BME280;19751;40.274;18.268;2023-04-20T11:30:43;100850.28;;;18.26;100.00
33404;BME280;19751;40.274;18.268;2023-04-20T11:33:09;100846.13;;;18.24;100.00
33404;BME280;19751;40.274;18.268;2023-04-20T11:35:39;100844.47;;;18.23;100.00
33404;BME280;19751;40.274;18.268;2023-04-20T11:38:06;100846.13;;;18.24;100.00
33404;BME280;19751;40.274;18.268;2023-04-20T11:40:32;100838.53;;;18.26;100.00
33404;BME280;19751;40.274;18.268;2023-04-20T11:42:57;100838.75;;;18.24;100.00
33404;BME280;19751;40.274;18.268;2023-04-20T11:45:24;100842.00;;;18.21;100.00
33404;BME280;19751;40.274;18.268;2023-04-20T11:47:50;100835.94;;;18.19;100.00
33404;BME280;19751;40.274;18.268;2023-04-20T11:50:17;100840.44;;;18.13;100.00
33404;BME280;19751;40.274;18.268;2023-04-20T11:52:43;100844.47;;;18.11;100.00
33404;BME280;19751;40.274;18.268;2023-04-20T11:55:09;100846.72;;;18.02;100.00
33404;BME280;19751;40.274;18.268;2023-04-20T11:57:35;100846.47;;;17.92;100.00
33404;BME280;19751;40.274;18.268;2023-04-20T12:00:01;100844.81;;;17.79;100.00
33404;BME280;19751;40.274;18.268;2023-04-20T12:02:26;100840.69;;;17.70;100.00
33404;BME280;19751;40.274;18.268;2023-04-20T12:04:52;100842.94;;;17.61;100.00
33404;BME280;19751;40.274;18.268;2023-04-20T12:07:17;100853.94;;;17.55;100.00
33404;BME280;19751;40.274;18.268;2023-04-20T12:09:43;100857.59;;;17.49;100.00
33404;BME280;19751;40.274;18.268;2023-04-20T12:12:08;100858.53;;;17.43;100.00
33404;BME280;19751;40.274;18.268;2023-04-20T12:14:34;100850.69;;;17.34;100.00
33404;BME280;19751;40.274;18.268;2023-04-20T12:17:01;100849.69;;;17.29;100.00
33404;BME280;19751;40.274;18.268;2023-04-20T12:19:26;100848.50;;;17.25;100.00
33404;BME280;19751;40.274;18.268;2023-04-20T12:21:52;100841.88;;;17.21;100.00
33404;BME280;19751;40.274;18.268;2023-04-20T12:24:18;100837.72;;;17.18;100.00
33404;BME280;19751;40.274;18.268;2023-04-20T12:26:43;100845.38;;;17.09;100.00
33404;BME280;19751;40.274;18.268;2023-04-20T12:29:08;100847.72;;;17.06;100.00
33404;BME280;19751;40.274;18.268;2023-04-20T12:31:34;100853.63;;;17.03;100.00